sensor_id;sensor_type;location;lat;lon;timestamp;temperature;humidity
17146;DHT22;8688;54.444;18.444;2022-09-06T00:01:07;8.70;1.00
17146;DHT22;8688;54.444;18.444;2022-09-06T00:03:36;8.50;1.00
17146;DHT22;8688;54.444;18.444;2022-09-06T00:06:13;8.40;1.00
17146;DHT22;8688;54.444;18.444;2022-09-06T00:08:42;8.30;1.00
17146;DHT22;8688;54.444;18.444;2022-09-06T00:11:10;8.30;1.00
17146;DHT22;8688;54.444;18.444;2022-09-06T00:13:39;8.40;1.00
17146;DHT22;8688;54.444;18.444;2022-09-06T00:16:08;8.50;1.00
17146;DHT22;8688;54.444;18.444;2022-09-06T00:18:36;8.50;1.00
17146;DHT22;8688;54.444;18.444;2022-09-06T00:21:11;8.60;1.00
17146;DHT22;8688;54.444;18.444;2022-09-06T00:23:40;8.60;1.00
17146;DHT22;8688;54.444;18.444;2022-09-06T00:26:08;8.60;1.00
17146;DHT22;8688;54.444;18.444;2022-09-06T00:28:35;8.50;1.00
17146;DHT22;8688;54.444;18.444;2022-09-06T00:31:13;8.50;1.00
17146;DHT22;8688;54.444;18.444;2022-09-06T00:33:41;8.50;1.00
17146;DHT22;8688;54.444;18.444;2022-09-06T00:36:09;8.50;1.00
17146;DHT22;8688;54.444;18.444;2022-09-06T00:38:37;8.50;1.00
17146;DHT22;8688;54.444;18.444;2022-09-06T00:41:07;8.40;1.00
17146;DHT22;8688;54.444;18.444;2022-09-06T00:43:36;8.20;1.00
17146;DHT22;8688;54.444;18.444;2022-09-06T00:46:04;8.20;1.00
17146;DHT22;8688;54.444;18.444;2022-09-06T00:48:33;8.30;1.00
17146;DHT22;8688;54.444;18.444;2022-09-06T00:51:04;8.30;1.00
17146;DHT22;8688;54.444;18.444;2022-09-06T00:53:32;8.30;1.00
17146;DHT22;8688;54.444;18.444;2022-09-06T00:56:00;8.30;1.00
17146;DHT22;8688;54.444;18.444;2022-09-06T00:58:29;8.30;1.00
17146;DHT22;8688;54.444;18.444;2022-09-06T01:00:56;8.30;1.00
17146;DHT22;8688;54.444;18.444;2022-09-06T01:03:24;8.40;1.00
17146;DHT22;8688;54.444;18.444;2022-09-06T01:05:59;8.40;1.00
17146;DHT22;8688;54.444;18.444;2022-09-06T01:08:40;8.50;1.00
17146;DHT22;8688;54.444;18.444;2022-09-06T01:11:29;8.50;5.10
17146;DHT22;8688;54.444;18.444;2022-09-06T01:14:11;8.60;99.90
17146;DHT22;8688;54.444;18.444;2022-09-06T01:16:44;8.70;99.90
17146;DHT22;8688;54.444;18.444;2022-09-06T01:19:59;8.80;99.90
17146;DHT22;8688;54.444;18.444;2022-09-06T01:25:34;8.80;99.90
17146;DHT22;8688;54.444;18.444;2022-09-06T01:28:22;8.80;99.90
17146;DHT22;8688;54.444;18.444;2022-09-06T01:30:59;8.90;99.90
17146;DHT22;8688;54.444;18.444;2022-09-06T01:33:33;9.00;99.90
17146;DHT22;8688;54.444;18.444;2022-09-06T01:36:05;9.00;99.90
17146;DHT22;8688;54.444;18.444;2022-09-06T01:38:34;9.00;99.90
17146;DHT22;8688;54.444;18.444;2022-09-06T01:41:02;9.00;99.90
17146;DHT22;8688;54.444;18.444;2022-09-06T01:43:32;9.00;99.90
17146;DHT22;8688;54.444;18.444;2022-09-06T01:46:06;9.10;99.90
17146;DHT22;8688;54.444;18.444;2022-09-06T01:49:07;9.20;99.90
17146;DHT22;8688;54.444;18.444;2022-09-06T01:51:44;9.30;99.90
17146;DHT22;8688;54.444;18.444;2022-09-06T01:54:27;9.40;99.90
17146;DHT22;8688;54.444;18.444;2022-09-06T01:57:11;9.50;99.90
17146;DHT22;8688;54.444;18.444;2022-09-06T02:00:01;9.60;99.90
17146;DHT22;8688;54.444;18.444;2022-09-06T02:10:13;9.70;99.90
17146;DHT22;8688;54.444;18.444;2022-09-06T02:12:43;9.80;99.90
17146;DHT22;8688;54.444;18.444;2022-09-06T02:15:15;9.80;99.90
17146;DHT22;8688;54.444;18.444;2022-09-06T02:17:51;9.90;99.90
17146;DHT22;8688;54.444;18.444;2022-09-06T02:20:23;9.90;99.90
17146;DHT22;8688;54.444;18.444;2022-09-06T02:22:53;9.90;99.90
17146;DHT22;8688;54.444;18.444;2022-09-06T02:25:25;10.00;99.90
17146;DHT22;8688;54.444;18.444;2022-09-06T02:28:02;10.00;99.90
17146;DHT22;8688;54.444;18.444;2022-09-06T02:30:34;10.10;99.90
17146;DHT22;8688;54.444;18.444;2022-09-06T02:33:07;10.10;99.90
17146;DHT22;8688;54.444;18.444;2022-09-06T02:35:42;10.10;99.90
17146;DHT22;8688;54.444;18.444;2022-09-06T02:38:10;10.20;99.90
17146;DHT22;8688;54.444;18.444;2022-09-06T02:40:38;10.20;99.90
17146;DHT22;8688;54.444;18.444;2022-09-06T02:43:05;10.20;99.90
17146;DHT22;8688;54.444;18.444;2022-09-06T02:45:34;10.30;99.90
17146;DHT22;8688;54.444;18.444;2022-09-06T02:48:02;10.30;99.90
17146;DHT22;8688;54.444;18.444;2022-09-06T02:50:30;10.40;99.90
17146;DHT22;8688;54.444;18.444;2022-09-06T02:53:02;10.40;99.90
17146;DHT22;8688;54.444;18.444;2022-09-06T02:55:30;10.50;99.90
17146;DHT22;8688;54.444;18.444;2022-09-06T02:57:58;10.50;99.90
17146;DHT22;8688;54.444;18.444;2022-09-06T03:00:26;10.50;99.90
17146;DHT22;8688;54.444;18.444;2022-09-06T03:02:55;10.50;99.90
17146;DHT22;8688;54.444;18.444;2022-09-06T03:05:23;10.50;99.90
17146;DHT22;8688;54.444;18.444;2022-09-06T03:07:51;10.60;99.90
17146;DHT22;8688;54.444;18.444;2022-09-06T03:10:21;10.60;99.90
17146;DHT22;8688;54.444;18.444;2022-09-06T03:12:49;10.50;99.90
17146;DHT22;8688;54.444;18.444;2022-09-06T03:15:17;10.50;99.90
17146;DHT22;8688;54.444;18.444;2022-09-06T03:17:45;10.50;99.90
17146;DHT22;8688;54.444;18.444;2022-09-06T03:30:35;10.60;99.90
17146;DHT22;8688;54.444;18.444;2022-09-06T03:33:03;10.60;99.90
17146;DHT22;8688;54.444;18.444;2022-09-06T03:35:30;10.70;99.90
17146;DHT22;8688;54.444;18.444;2022-09-06T03:37:58;10.70;99.90
17146;DHT22;8688;54.444;18.444;2022-09-06T03:40:25;10.70;99.90
17146;DHT22;8688;54.444;18.444;2022-09-06T03:42:52;10.70;99.90
17146;DHT22;8688;54.444;18.444;2022-09-06T03:45:20;10.80;99.90
17146;DHT22;8688;54.444;18.444;2022-09-06T03:47:49;10.80;99.90
17146;DHT22;8688;54.444;18.444;2022-09-06T03:50:16;10.80;99.90
17146;DHT22;8688;54.444;18.444;2022-09-06T03:52:44;10.80;99.90
17146;DHT22;8688;54.444;18.444;2022-09-06T03:55:11;10.80;99.90
17146;DHT22;8688;54.444;18.444;2022-09-06T03:57:38;10.80;99.90
17146;DHT22;8688;54.444;18.444;2022-09-06T04:00:07;10.80;99.90
17146;DHT22;8688;54.444;18.444;2022-09-06T04:02:34;10.80;99.90
17146;DHT22;8688;54.444;18.444;2022-09-06T04:05:04;10.80;99.90
17146;DHT22;8688;54.444;18.444;2022-09-06T04:07:31;10.80;99.90
17146;DHT22;8688;54.444;18.444;2022-09-06T04:09:59;10.90;99.90
17146;DHT22;8688;54.444;18.444;2022-09-06T04:12:26;10.90;99.90
17146;DHT22;8688;54.444;18.444;2022-09-06T04:14:54;10.90;99.90
17146;DHT22;8688;54.444;18.444;2022-09-06T04:17:21;10.90;99.90
17146;DHT22;8688;54.444;18.444;2022-09-06T04:19:48;10.90;99.90
17146;DHT22;8688;54.444;18.444;2022-09-06T04:22:17;10.80;99.90
17146;DHT22;8688;54.444;18.444;2022-09-06T04:24:44;10.90;99.90
17146;DHT22;8688;54.444;18.444;2022-09-06T04:27:12;10.90;99.90
17146;DHT22;8688;54.444;18.444;2022-09-06T04:29:39;10.90;99.90
17146;DHT22;8688;54.444;18.444;2022-09-06T04:32:07;11.00;99.90
17146;DHT22;8688;54.444;18.444;2022-09-06T04:34:34;11.00;99.90
17146;DHT22;8688;54.444;18.444;2022-09-06T04:37:01;11.00;99.90
17146;DHT22;8688;54.444;18.444;2022-09-06T04:39:30;11.10;99.90
17146;DHT22;8688;54.444;18.444;2022-09-06T04:41:58;11.10;99.90
17146;DHT22;8688;54.444;18.444;2022-09-06T04:44:25;11.10;99.90
17146;DHT22;8688;54.444;18.444;2022-09-06T04:47:03;11.20;99.90
17146;DHT22;8688;54.444;18.444;2022-09-06T04:49:30;11.20;99.90
17146;DHT22;8688;54.444;18.444;2022-09-06T04:51:57;11.20;99.90
17146;DHT22;8688;54.444;18.444;2022-09-06T04:54:25;11.20;99.90
17146;DHT22;8688;54.444;18.444;2022-09-06T04:56:53;11.30;99.90
17146;DHT22;8688;54.444;18.444;2022-09-06T04:59:21;11.30;99.90
17146;DHT22;8688;54.444;18.444;2022-09-06T05:01:48;11.30;99.90
17146;DHT22;8688;54.444;18.444;2022-09-06T05:19:49;11.70;99.90
17146;DHT22;8688;54.444;18.444;2022-09-06T05:22:17;11.80;99.90
17146;DHT22;8688;54.444;18.444;2022-09-06T05:24:54;11.80;99.90
17146;DHT22;8688;54.444;18.444;2022-09-06T05:27:22;11.80;99.90
17146;DHT22;8688;54.444;18.444;2022-09-06T05:29:49;11.80;99.90
17146;DHT22;8688;54.444;18.444;2022-09-06T05:32:17;11.90;99.90
17146;DHT22;8688;54.444;18.444;2022-09-06T05:34:44;11.90;99.90
17146;DHT22;8688;54.444;18.444;2022-09-06T05:37:13;12.00;99.90
17146;DHT22;8688;54.444;18.444;2022-09-06T05:39:40;12.10;99.90
17146;DHT22;8688;54.444;18.444;2022-09-06T05:42:08;12.10;99.90
17146;DHT22;8688;54.444;18.444;2022-09-06T05:44:36;12.20;99.90
17146;DHT22;8688;54.444;18.444;2022-09-06T05:47:04;12.20;99.90
17146;DHT22;8688;54.444;18.444;2022-09-06T05:49:31;12.20;99.90
17146;DHT22;8688;54.444;18.444;2022-09-06T05:51:59;12.30;99.90
17146;DHT22;8688;54.444;18.444;2022-09-06T05:54:28;12.40;99.90
17146;DHT22;8688;54.444;18.444;2022-09-06T05:56:55;12.40;99.90
17146;DHT22;8688;54.444;18.444;2022-09-06T05:59:22;12.50;99.90
17146;DHT22;8688;54.444;18.444;2022-09-06T06:01:51;12.60;99.90
17146;DHT22;8688;54.444;18.444;2022-09-06T06:04:19;12.70;99.90
17146;DHT22;8688;54.444;18.444;2022-09-06T06:06:47;12.70;99.90
17146;DHT22;8688;54.444;18.444;2022-09-06T06:09:15;12.80;76.80
17146;DHT22;8688;54.444;18.444;2022-09-06T06:11:44;12.90;80.00
17146;DHT22;8688;54.444;18.444;2022-09-06T06:14:11;13.00;1.00
17146;DHT22;8688;54.444;18.444;2022-09-06T06:16:39;13.00;1.00
17146;DHT22;8688;54.444;18.444;2022-09-06T06:19:06;13.10;1.00
17146;DHT22;8688;54.444;18.444;2022-09-06T06:21:34;13.10;1.00
17146;DHT22;8688;54.444;18.444;2022-09-06T06:24:04;13.20;1.00
17146;DHT22;8688;54.444;18.444;2022-09-06T06:26:33;13.20;1.00
17146;DHT22;8688;54.444;18.444;2022-09-06T06:29:02;13.20;1.00
17146;DHT22;8688;54.444;18.444;2022-09-06T06:31:31;13.20;99.90
17146;DHT22;8688;54.444;18.444;2022-09-06T06:33:59;13.30;1.00
17146;DHT22;8688;54.444;18.444;2022-09-06T06:36:28;13.30;99.90
17146;DHT22;8688;54.444;18.444;2022-09-06T06:46:54;13.30;1.00
17146;DHT22;8688;54.444;18.444;2022-09-06T06:49:25;13.30;1.00
17146;DHT22;8688;54.444;18.444;2022-09-06T06:51:53;13.40;1.00
17146;DHT22;8688;54.444;18.444;2022-09-06T06:54:20;13.40;1.00
17146;DHT22;8688;54.444;18.444;2022-09-06T06:56:48;13.50;1.00
17146;DHT22;8688;54.444;18.444;2022-09-06T06:59:15;13.60;1.00
17146;DHT22;8688;54.444;18.444;2022-09-06T07:01:42;13.60;99.90
17146;DHT22;8688;54.444;18.444;2022-09-06T07:04:11;13.60;1.00
17146;DHT22;8688;54.444;18.444;2022-09-06T07:06:46;13.60;99.90
17146;DHT22;8688;54.444;18.444;2022-09-06T07:09:14;13.60;99.90
17146;DHT22;8688;54.444;18.444;2022-09-06T07:11:43;13.70;99.90
17146;DHT22;8688;54.444;18.444;2022-09-06T07:14:10;13.70;1.00
17146;DHT22;8688;54.444;18.444;2022-09-06T07:16:37;13.70;99.90
17146;DHT22;8688;54.444;18.444;2022-09-06T07:19:05;13.70;1.00
17146;DHT22;8688;54.444;18.444;2022-09-06T07:21:34;13.80;99.90
17146;DHT22;8688;54.444;18.444;2022-09-06T07:24:02;13.80;99.90
17146;DHT22;8688;54.444;18.444;2022-09-06T07:26:32;13.80;99.90
17146;DHT22;8688;54.444;18.444;2022-09-06T07:29:01;13.80;99.90
17146;DHT22;8688;54.444;18.444;2022-09-06T07:31:28;13.90;1.00
17146;DHT22;8688;54.444;18.444;2022-09-06T07:33:57;14.00;99.90
17146;DHT22;8688;54.444;18.444;2022-09-06T07:36:24;14.00;1.00
17146;DHT22;8688;54.444;18.444;2022-09-06T07:38:53;14.00;1.00
17146;DHT22;8688;54.444;18.444;2022-09-06T07:41:20;14.00;1.00
17146;DHT22;8688;54.444;18.444;2022-09-06T07:43:52;14.00;99.90
17146;DHT22;8688;54.444;18.444;2022-09-06T07:46:20;14.10;99.90
17146;DHT22;8688;54.444;18.444;2022-09-06T07:48:48;14.10;99.90
17146;DHT22;8688;54.444;18.444;2022-09-06T07:51:17;14.10;99.90
17146;DHT22;8688;54.444;18.444;2022-09-06T07:53:48;14.10;53.90
17146;DHT22;8688;54.444;18.444;2022-09-06T07:56:19;14.10;1.00
17146;DHT22;8688;54.444;18.444;2022-09-06T07:58:47;14.10;1.00
17146;DHT22;8688;54.444;18.444;2022-09-06T08:01:24;14.30;1.00
17146;DHT22;8688;54.444;18.444;2022-09-06T08:03:53;14.30;99.90
17146;DHT22;8688;54.444;18.444;2022-09-06T08:06:20;14.30;99.90
17146;DHT22;8688;54.444;18.444;2022-09-06T08:08:48;14.30;99.90
17146;DHT22;8688;54.444;18.444;2022-09-06T08:11:17;14.30;99.90
17146;DHT22;8688;54.444;18.444;2022-09-06T08:13:47;14.40;99.90
17146;DHT22;8688;54.444;18.444;2022-09-06T08:16:15;14.40;99.90
17146;DHT22;8688;54.444;18.444;2022-09-06T08:18:43;14.50;99.90
17146;DHT22;8688;54.444;18.444;2022-09-06T08:21:11;14.60;99.90
17146;DHT22;8688;54.444;18.444;2022-09-06T08:23:43;14.60;99.90
17146;DHT22;8688;54.444;18.444;2022-09-06T08:26:10;14.60;99.90
17146;DHT22;8688;54.444;18.444;2022-09-06T08:28:39;14.70;99.90
17146;DHT22;8688;54.444;18.444;2022-09-06T08:31:08;14.80;95.80
17146;DHT22;8688;54.444;18.444;2022-09-06T08:33:36;14.80;43.60
17146;DHT22;8688;54.444;18.444;2022-09-06T08:36:04;14.80;94.50
17146;DHT22;8688;54.444;18.444;2022-09-06T08:38:33;14.80;99.90
17146;DHT22;8688;54.444;18.444;2022-09-06T08:41:09;14.90;1.00
17146;DHT22;8688;54.444;18.444;2022-09-06T08:43:39;14.90;13.80
17146;DHT22;8688;54.444;18.444;2022-09-06T08:46:14;15.00;24.60
17146;DHT22;8688;54.444;18.444;2022-09-06T08:48:43;15.00;37.10
17146;DHT22;8688;54.444;18.444;2022-09-06T08:54:27;15.00;1.00
17146;DHT22;8688;54.444;18.444;2022-09-06T08:57:05;15.10;10.40
17146;DHT22;8688;54.444;18.444;2022-09-06T08:59:38;15.10;15.40
17146;DHT22;8688;54.444;18.444;2022-09-06T09:02:17;15.20;1.00
17146;DHT22;8688;54.444;18.444;2022-09-06T09:04:49;15.20;1.00
17146;DHT22;8688;54.444;18.444;2022-09-06T09:07:28;15.10;1.00
17146;DHT22;8688;54.444;18.444;2022-09-06T09:10:01;15.20;1.00
17146;DHT22;8688;54.444;18.444;2022-09-06T09:12:31;15.20;1.00
17146;DHT22;8688;54.444;18.444;2022-09-06T09:15:09;15.10;1.00
17146;DHT22;8688;54.444;18.444;2022-09-06T09:17:38;15.20;1.00
17146;DHT22;8688;54.444;18.444;2022-09-06T09:20:06;15.30;1.00
17146;DHT22;8688;54.444;18.444;2022-09-06T09:22:35;15.30;1.00
17146;DHT22;8688;54.444;18.444;2022-09-06T09:25:04;15.40;1.00
17146;DHT22;8688;54.444;18.444;2022-09-06T09:27:33;15.40;1.00
17146;DHT22;8688;54.444;18.444;2022-09-06T09:30:06;15.40;1.00
17146;DHT22;8688;54.444;18.444;2022-09-06T09:32:35;15.40;1.00
17146;DHT22;8688;54.444;18.444;2022-09-06T09:35:19;15.50;1.00
17146;DHT22;8688;54.444;18.444;2022-09-06T09:37:47;15.50;1.00
17146;DHT22;8688;54.444;18.444;2022-09-06T09:40:29;15.60;1.00
17146;DHT22;8688;54.444;18.444;2022-09-06T09:43:09;15.50;1.00
17146;DHT22;8688;54.444;18.444;2022-09-06T09:48:18;15.60;1.00
17146;DHT22;8688;54.444;18.444;2022-09-06T09:50:47;15.60;1.00
17146;DHT22;8688;54.444;18.444;2022-09-06T10:01:11;15.60;1.00
17146;DHT22;8688;54.444;18.444;2022-09-06T10:03:43;15.60;1.00
17146;DHT22;8688;54.444;18.444;2022-09-06T10:06:12;15.60;1.00
17146;DHT22;8688;54.444;18.444;2022-09-06T10:08:42;15.60;1.00
17146;DHT22;8688;54.444;18.444;2022-09-06T10:11:13;15.70;1.00
17146;DHT22;8688;54.444;18.444;2022-09-06T10:13:40;15.80;1.00
17146;DHT22;8688;54.444;18.444;2022-09-06T10:16:09;15.90;1.00
17146;DHT22;8688;54.444;18.444;2022-09-06T10:18:38;15.90;1.00
17146;DHT22;8688;54.444;18.444;2022-09-06T10:21:09;15.90;1.00
17146;DHT22;8688;54.444;18.444;2022-09-06T10:23:51;15.90;1.00
17146;DHT22;8688;54.444;18.444;2022-09-06T10:26:31;15.90;1.00
17146;DHT22;8688;54.444;18.444;2022-09-06T10:29:03;16.00;1.00
17146;DHT22;8688;54.444;18.444;2022-09-06T10:31:59;16.00;1.00
17146;DHT22;8688;54.444;18.444;2022-09-06T10:37:48;16.00;1.00
17146;DHT22;8688;54.444;18.444;2022-09-06T10:40:29;16.10;1.00
17146;DHT22;8688;54.444;18.444;2022-09-06T10:42:59;16.10;1.00
17146;DHT22;8688;54.444;18.444;2022-09-06T10:45:33;16.20;1.00
17146;DHT22;8688;54.444;18.444;2022-09-06T10:48:06;16.30;1.00
17146;DHT22;8688;54.444;18.444;2022-09-06T10:50:41;16.30;1.00
17146;DHT22;8688;54.444;18.444;2022-09-06T10:53:15;16.10;1.00
17146;DHT22;8688;54.444;18.444;2022-09-06T10:55:45;16.00;1.00
17146;DHT22;8688;54.444;18.444;2022-09-06T10:58:23;16.10;1.00
17146;DHT22;8688;54.444;18.444;2022-09-06T11:00:53;16.10;1.00
17146;DHT22;8688;54.444;18.444;2022-09-06T11:03:25;16.10;1.00
17146;DHT22;8688;54.444;18.444;2022-09-06T11:05:57;16.10;1.00
17146;DHT22;8688;54.444;18.444;2022-09-06T11:08:31;16.00;1.00
17146;DHT22;8688;54.444;18.444;2022-09-06T11:11:05;16.10;1.00
17146;DHT22;8688;54.444;18.444;2022-09-06T11:13:34;16.00;1.00
17146;DHT22;8688;54.444;18.444;2022-09-06T11:16:08;16.10;1.00
17146;DHT22;8688;54.444;18.444;2022-09-06T11:18:40;16.20;1.00
17146;DHT22;8688;54.444;18.444;2022-09-06T11:21:32;16.10;1.00
17146;DHT22;8688;54.444;18.444;2022-09-06T11:24:10;16.20;1.00
17146;DHT22;8688;54.444;18.444;2022-09-06T11:26:42;16.20;1.00
17146;DHT22;8688;54.444;18.444;2022-09-06T11:29:17;16.20;1.00
17146;DHT22;8688;54.444;18.444;2022-09-06T11:31:51;16.20;99.90
17146;DHT22;8688;54.444;18.444;2022-09-06T11:34:21;16.20;99.90
17146;DHT22;8688;54.444;18.444;2022-09-06T11:36:51;16.20;1.00
17146;DHT22;8688;54.444;18.444;2022-09-06T11:39:32;16.30;1.00
17146;DHT22;8688;54.444;18.444;2022-09-06T11:42:06;16.60;1.00
17146;DHT22;8688;54.444;18.444;2022-09-06T11:44:53;16.80;1.00
17146;DHT22;8688;54.444;18.444;2022-09-06T11:47:37;16.90;1.00
17146;DHT22;8688;54.444;18.444;2022-09-06T11:50:26;17.00;1.00
17146;DHT22;8688;54.444;18.444;2022-09-06T11:53:15;17.00;1.00
17146;DHT22;8688;54.444;18.444;2022-09-06T11:55:46;16.90;99.90
17146;DHT22;8688;54.444;18.444;2022-09-06T11:58:27;16.80;99.90
17146;DHT22;8688;54.444;18.444;2022-09-06T12:01:33;16.80;99.90
17146;DHT22;8688;54.444;18.444;2022-09-06T12:04:02;16.80;99.90
17146;DHT22;8688;54.444;18.444;2022-09-06T12:06:32;16.70;99.90
17146;DHT22;8688;54.444;18.444;2022-09-06T12:09:00;16.90;99.90
17146;DHT22;8688;54.444;18.444;2022-09-06T12:11:35;16.90;99.90
17146;DHT22;8688;54.444;18.444;2022-09-06T12:14:05;17.00;99.90
17146;DHT22;8688;54.444;18.444;2022-09-06T12:19:59;16.90;99.90
17146;DHT22;8688;54.444;18.444;2022-09-06T12:23:01;17.00;99.90
17146;DHT22;8688;54.444;18.444;2022-09-06T12:25:54;17.10;99.90
17146;DHT22;8688;54.444;18.444;2022-09-06T12:28:34;17.20;99.90
17146;DHT22;8688;54.444;18.444;2022-09-06T12:31:31;17.40;99.90
17146;DHT22;8688;54.444;18.444;2022-09-06T12:34:11;17.70;99.90
17146;DHT22;8688;54.444;18.444;2022-09-06T12:36:48;17.50;99.90
17146;DHT22;8688;54.444;18.444;2022-09-06T12:39:17;17.30;99.90
17146;DHT22;8688;54.444;18.444;2022-09-06T12:41:48;17.20;99.90
17146;DHT22;8688;54.444;18.444;2022-09-06T12:44:24;17.30;99.90
17146;DHT22;8688;54.444;18.444;2022-09-06T12:46:53;17.30;99.90
17146;DHT22;8688;54.444;18.444;2022-09-06T12:49:21;17.20;99.90
17146;DHT22;8688;54.444;18.444;2022-09-06T12:51:49;17.10;99.90
17146;DHT22;8688;54.444;18.444;2022-09-06T12:54:20;17.40;99.90
17146;DHT22;8688;54.444;18.444;2022-09-06T12:56:48;17.60;99.90
17146;DHT22;8688;54.444;18.444;2022-09-06T12:59:19;17.70;99.90
17146;DHT22;8688;54.444;18.444;2022-09-06T13:01:56;17.70;99.90
17146;DHT22;8688;54.444;18.444;2022-09-06T13:04:34;17.60;99.90
17146;DHT22;8688;54.444;18.444;2022-09-06T13:07:09;17.70;99.90
17146;DHT22;8688;54.444;18.444;2022-09-06T13:09:40;17.70;99.90
17146;DHT22;8688;54.444;18.444;2022-09-06T13:12:17;17.70;99.90
17146;DHT22;8688;54.444;18.444;2022-09-06T13:14:53;17.70;99.90
17146;DHT22;8688;54.444;18.444;2022-09-06T13:17:25;17.80;99.90
17146;DHT22;8688;54.444;18.444;2022-09-06T13:19:54;17.80;99.90
17146;DHT22;8688;54.444;18.444;2022-09-06T13:22:43;18.00;99.90
17146;DHT22;8688;54.444;18.444;2022-09-06T13:25:22;18.20;99.90
17146;DHT22;8688;54.444;18.444;2022-09-06T13:27:51;18.20;99.90
17146;DHT22;8688;54.444;18.444;2022-09-06T13:30:35;18.00;99.90
17146;DHT22;8688;54.444;18.444;2022-09-06T13:33:04;17.80;99.90
17146;DHT22;8688;54.444;18.444;2022-09-06T13:35:34;17.90;99.90
17146;DHT22;8688;54.444;18.444;2022-09-06T13:38:30;18.20;99.90
17146;DHT22;8688;54.444;18.444;2022-09-06T13:40:59;18.30;99.90
17146;DHT22;8688;54.444;18.444;2022-09-06T13:43:27;18.30;99.90
17146;DHT22;8688;54.444;18.444;2022-09-06T13:46:09;18.20;99.90
17146;DHT22;8688;54.444;18.444;2022-09-06T13:48:37;18.00;99.90
17146;DHT22;8688;54.444;18.444;2022-09-06T13:51:06;18.00;99.90
17146;DHT22;8688;54.444;18.444;2022-09-06T13:53:35;17.90;99.90
17146;DHT22;8688;54.444;18.444;2022-09-06T13:56:02;18.00;99.90
17146;DHT22;8688;54.444;18.444;2022-09-06T13:58:33;18.00;99.90
17146;DHT22;8688;54.444;18.444;2022-09-06T14:01:00;18.00;99.90
17146;DHT22;8688;54.444;18.444;2022-09-06T14:03:30;18.00;99.90
17146;DHT22;8688;54.444;18.444;2022-09-06T14:05:58;18.00;99.90
17146;DHT22;8688;54.444;18.444;2022-09-06T14:08:26;17.80;99.90
17146;DHT22;8688;54.444;18.444;2022-09-06T14:10:54;17.60;99.90
17146;DHT22;8688;54.444;18.444;2022-09-06T14:13:21;17.60;99.90
17146;DHT22;8688;54.444;18.444;2022-09-06T14:15:49;17.60;99.90
17146;DHT22;8688;54.444;18.444;2022-09-06T14:18:16;17.50;99.90
17146;DHT22;8688;54.444;18.444;2022-09-06T14:20:50;17.40;99.90
17146;DHT22;8688;54.444;18.444;2022-09-06T14:23:18;17.50;99.90
17146;DHT22;8688;54.444;18.444;2022-09-06T14:25:46;17.40;99.90
17146;DHT22;8688;54.444;18.444;2022-09-06T14:28:13;17.50;99.90
17146;DHT22;8688;54.444;18.444;2022-09-06T14:30:41;17.40;99.90
17146;DHT22;8688;54.444;18.444;2022-09-06T14:33:09;17.40;99.90
17146;DHT22;8688;54.444;18.444;2022-09-06T14:35:38;17.40;99.90
17146;DHT22;8688;54.444;18.444;2022-09-06T14:38:07;17.30;99.90
17146;DHT22;8688;54.444;18.444;2022-09-06T14:40:35;17.60;99.90
17146;DHT22;8688;54.444;18.444;2022-09-06T14:43:03;17.80;99.90
17146;DHT22;8688;54.444;18.444;2022-09-06T14:45:32;17.90;99.90
17146;DHT22;8688;54.444;18.444;2022-09-06T14:48:00;17.80;99.90
17146;DHT22;8688;54.444;18.444;2022-09-06T14:50:28;17.80;99.90
17146;DHT22;8688;54.444;18.444;2022-09-06T14:52:56;17.80;99.90
17146;DHT22;8688;54.444;18.444;2022-09-06T14:55:24;17.60;99.90
17146;DHT22;8688;54.444;18.444;2022-09-06T14:57:52;17.40;99.90
17146;DHT22;8688;54.444;18.444;2022-09-06T15:00:20;17.30;99.90
17146;DHT22;8688;54.444;18.444;2022-09-06T15:02:47;17.30;99.90
17146;DHT22;8688;54.444;18.444;2022-09-06T15:05:15;17.40;99.90
17146;DHT22;8688;54.444;18.444;2022-09-06T15:07:43;17.50;99.90
17146;DHT22;8688;54.444;18.444;2022-09-06T15:10:10;17.40;99.90
17146;DHT22;8688;54.444;18.444;2022-09-06T15:12:39;17.20;99.90
17146;DHT22;8688;54.444;18.444;2022-09-06T15:15:07;17.00;99.90
17146;DHT22;8688;54.444;18.444;2022-09-06T15:17:34;17.00;99.90
17146;DHT22;8688;54.444;18.444;2022-09-06T15:20:02;17.20;99.90
17146;DHT22;8688;54.444;18.444;2022-09-06T15:22:30;17.20;99.90
17146;DHT22;8688;54.444;18.444;2022-09-06T15:24:58;17.10;99.90
17146;DHT22;8688;54.444;18.444;2022-09-06T15:27:25;17.00;99.90
17146;DHT22;8688;54.444;18.444;2022-09-06T15:29:54;16.90;99.90
17146;DHT22;8688;54.444;18.444;2022-09-06T15:32:22;16.70;99.90
17146;DHT22;8688;54.444;18.444;2022-09-06T15:34:49;16.80;99.90
17146;DHT22;8688;54.444;18.444;2022-09-06T15:37:16;16.80;99.90
17146;DHT22;8688;54.444;18.444;2022-09-06T15:39:44;16.80;99.90
17146;DHT22;8688;54.444;18.444;2022-09-06T15:42:11;16.80;99.90
17146;DHT22;8688;54.444;18.444;2022-09-06T15:44:38;16.70;99.90
17146;DHT22;8688;54.444;18.444;2022-09-06T15:47:07;16.80;99.90
17146;DHT22;8688;54.444;18.444;2022-09-06T15:49:36;16.60;99.90
17146;DHT22;8688;54.444;18.444;2022-09-06T15:52:05;16.50;99.90
17146;DHT22;8688;54.444;18.444;2022-09-06T15:54:34;16.30;99.90
17146;DHT22;8688;54.444;18.444;2022-09-06T15:57:19;16.20;99.90
17146;DHT22;8688;54.444;18.444;2022-09-06T15:59:46;16.00;99.90
17146;DHT22;8688;54.444;18.444;2022-09-06T16:02:15;15.90;99.90
17146;DHT22;8688;54.444;18.444;2022-09-06T16:04:42;15.90;99.90
17146;DHT22;8688;54.444;18.444;2022-09-06T16:07:11;15.90;99.90
17146;DHT22;8688;54.444;18.444;2022-09-06T16:09:38;15.80;99.90
17146;DHT22;8688;54.444;18.444;2022-09-06T16:12:06;15.80;99.90
17146;DHT22;8688;54.444;18.444;2022-09-06T16:14:33;15.60;99.90
17146;DHT22;8688;54.444;18.444;2022-09-06T16:17:01;15.60;99.90
17146;DHT22;8688;54.444;18.444;2022-09-06T16:19:30;15.50;99.90
17146;DHT22;8688;54.444;18.444;2022-09-06T16:21:57;15.40;99.90
17146;DHT22;8688;54.444;18.444;2022-09-06T16:24:25;15.40;99.90
17146;DHT22;8688;54.444;18.444;2022-09-06T16:26:53;15.10;99.90
17146;DHT22;8688;54.444;18.444;2022-09-06T16:29:21;15.10;99.90
17146;DHT22;8688;54.444;18.444;2022-09-06T16:31:49;15.00;99.90
17146;DHT22;8688;54.444;18.444;2022-09-06T16:34:18;14.90;1.00
17146;DHT22;8688;54.444;18.444;2022-09-06T16:36:47;14.80;1.00
17146;DHT22;8688;54.444;18.444;2022-09-06T16:39:15;14.70;1.00
17146;DHT22;8688;54.444;18.444;2022-09-06T16:41:44;14.70;1.00
17146;DHT22;8688;54.444;18.444;2022-09-06T16:44:13;14.60;1.00
17146;DHT22;8688;54.444;18.444;2022-09-06T16:46:41;14.40;1.00
17146;DHT22;8688;54.444;18.444;2022-09-06T16:49:09;14.40;1.00
17146;DHT22;8688;54.444;18.444;2022-09-06T16:51:36;14.30;1.00
17146;DHT22;8688;54.444;18.444;2022-09-06T16:54:05;14.20;1.00
17146;DHT22;8688;54.444;18.444;2022-09-06T16:56:32;14.10;1.00
17146;DHT22;8688;54.444;18.444;2022-09-06T16:59:01;14.10;1.00
17146;DHT22;8688;54.444;18.444;2022-09-06T17:01:29;14.00;1.00
17146;DHT22;8688;54.444;18.444;2022-09-06T17:03:59;14.00;1.00
17146;DHT22;8688;54.444;18.444;2022-09-06T17:06:27;13.90;1.00